Fayetteville, AR

8:45 AM CST on January 29, 2015 (GMT -0600)
Elkins / Durham | Change Station
CLOSE
Current Station
Personal Weather Station
Location: Fayetteville, AR
Elevation: 1375 ft
Nearby Weather Stations

Elev 1375 ft 35.97 °N, 94.01 °W | Updated 42 seconds ago

Clear
Clear
50.5 °F
Feels Like 50.5 °F
N
13.0
Wind Variable Wind from NW
Gusts 14.5 mph

Today
High -- | Low -- °F
--% Chance of Precip.
Yesterday
High -- | Low -- °F
Precip. -- in
7:19 AM 5:40 PM
Waxing Gibbous, 74% visible
Pressure 30.15 in
Visibility 10.0 miles
Clouds Clear
Dew Point 37 °F
Humidity 60%
Rainfall 0.00 in
Snow Depth Not available.
UV 0 out of 12
Pollen 5.40 out of 12
Air Quality Not available.
Flu Activity Not available.
METAR KFYV 291353Z 00000KT 10SM CLR 09/02 A3016 RMK AO2 SLP209 T00890017

More Conditions Fewer Conditions

Pressure 30.15 in
Visibility 10.0 miles
Clouds Clear
Dew Point 37 °F
Humidity 60%
Rainfall 0.00 in
Snow Depth Not available.
UV 0 out of 12
Pollen 5.40 out of 12
Air Quality Not available.
Flu Activity Not available.
METAR KFYV 291353Z 00000KT 10SM CLR 09/02 A3016 RMK AO2 SLP209 T00890017

More Conditions Fewer Conditions

10-Day Weather Forecast

Almanac

Astronomy

Jan. 29, 2015 Rise Set
Actual Time
Civil Twilight
Nautical Twilight
Astronomical Twilight
Moon
Length of Visible Light
Length of Day
Tomorrow will be .
, % of the Moon is Illuminated

Today's Extremes

State Highs State Lows

Community

WunderPhotos

Upload Photos

1,791,443 photos uploaded!

WunderBlogs® & News

Nearby

Air Quality

  Air Quality AQ Index Pollutant
Not available.

Snow Depth

Station Depth Elevation

Earthquake Activity

City Distance Mag. Time & Date
Minimum magnitude displayed is 2.5.

Coastal Water Temperatures

Place Temperature

Nearby Weather Stations